Date,TemperatureHighF,TemperatureAvgF,TemperatureLowF,DewpointHighF,DewpointAvgF,DewpointLowF,HumidityHigh,HumidityAvg,HumidityLow,PressureMaxIn,PressureMinIn,WindSpeedMaxMPH,WindSpeedAvgMPH,GustSpeedMaxMPH,PrecipitationSumIn
2013-1-1,78.5,69.1,61.4,60.8,57.9,50.1,87,69,39,30.11,30.02,16,5,16,0.00
2013-1-2,75.2,68.9,63.0,60.7,57.4,53.0,79,67,51,30.15,30.05,8,3,8,0.00
2013-1-3,79.2,70.0,62.5,63.2,57.9,51.0,81,67,38,30.12,30.04,13,4,13,0.00
2013-1-4,73.8,67.4,63.0,61.0,55.0,48.4,82,66,47,30.15,30.03,15,6,15,0.00
2013-1-5,71.3,65.8,59.4,58.8,52.6,44.6,76,63,45,30.05,29.91,9,4,9,0.00
2013-1-6,74.2,70.4,66.6,65.2,62.2,58.8,82,75,63,29.99,29.85,16,6,16,0.00
2013-1-7,81.4,73.5,68.9,65.1,59.2,49.3,82,62,35,29.94,29.81,15,5,15,0.00
2013-1-8,78.3,72.3,68.4,61.0,55.9,36.9,71,57,24,30.04,29.90,14,4,14,0.00
2013-1-9,76.0,71.7,67.5,68.4,63.2,56.8,84,75,65,30.00,29.86,10,5,10,0.00
2013-1-10,80.5,71.9,64.1,67.3,60.5,50.0,88,69,44,30.06,29.82,27,8,27,0.00
2013-1-11,65.9,61.7,56.9,50.3,42.2,37.5,61,49,38,30.27,30.05,28,14,28,0.00
2013-1-12,66.1,59.2,54.2,46.4,43.8,40.2,66,57,44,30.31,30.21,24,12,24,0.00
2013-1-13,66.8,59.5,53.5,49.3,46.8,43.9,74,63,51,30.23,30.11,18,8,18,0.00
2013-1-14,68.8,61.3,56.3,49.2,45.8,37.5,68,57,44,30.19,30.08,22,10,22,0.00
2013-1-15,65.3,59.2,54.9,50.0,46.6,41.6,72,63,53,30.20,30.10,26,12,26,0.00
2013-1-16,65.9,59.1,53.8,51.3,45.4,37.1,76,61,46,30.22,30.13,21,11,21,0.00
2013-1-17,71.5,61.9,53.6,51.1,46.5,39.3,81,59,33,30.30,30.18,14,5,14,0.00
2013-1-18,68.6,62.3,55.8,50.8,46.5,41.4,65,56,41,30.25,30.11,11,3,11,0.00
2013-1-19,69.3,63.3,56.3,54.5,51.1,48.0,75,65,51,30.22,30.12,10,3,10,0.00
2013-1-20,69.8,64.1,56.9,59.5,55.7,50.0,82,74,60,30.16,30.06,10,3,10,0.00
2013-1-21,72.9,66.6,61.6,61.2,55.9,47.6,86,70,43,30.17,30.04,10,2,10,0.00
2013-1-22,77.8,67.7,59.6,58.9,54.9,50.0,79,65,42,30.17,30.07,12,4,12,0.00
2013-1-23,71.6,65.2,58.7,60.3,57.6,54.8,87,77,61,30.20,30.10,8,3,8,0.00
2013-1-24,73.3,66.4,59.0,60.5,56.5,48.0,87,72,42,30.12,30.03,10,4,10,0.00
2013-1-25,72.7,67.9,62.3,61.7,56.5,47.2,80,67,45,30.13,30.01,10,4,10,0.00
2013-1-26,74.0,68.6,63.4,64.2,60.2,54.4,82,75,58,30.11,30.03,9,3,9,0.00
2013-1-27,78.3,69.6,63.7,64.4,59.7,50.5,81,72,40,30.10,29.99,11,3,11,0.00
2013-1-28,77.2,69.9,64.1,64.4,59.0,46.5,84,70,37,30.05,29.88,10,3,10,0.00
2013-1-29,75.1,71.0,68.0,64.7,60.8,53.7,88,71,49,29.92,29.79,16,5,16,0.00
2013-1-30,73.4,68.5,64.8,58.0,54.7,51.4,69,62,50,29.99,29.88,17,7,17,0.00
2013-1-31,72.5,68.1,62.8,65.4,60.6,54.4,86,77,70,29.94,29.81,16,4,16,0.00
2013-2-1,74.5,70.2,66.6,66.0,63.4,60.0,89,79,68,29.96,29.81,20,6,20,0.00
2013-2-2,76.0,68.9,65.0,59.6,54.1,48.3,78,60,39,30.09,29.92,18,6,18,0.00
2013-2-3,72.7,65.6,60.8,53.7,49.9,43.7,76,58,38,30.19,30.07,22,10,22,0.00
2013-2-4,71.8,64.8,60.5,51.8,48.1,44.2,65,55,44,30.23,30.13,22,11,22,0.00
2013-2-5,73.3,63.8,56.2,57.4,52.3,47.8,76,67,46,30.22,30.12,13,5,13,0.00
2013-2-6,69.8,63.7,57.1,56.0,53.9,50.8,81,71,60,30.27,30.15,10,3,10,0.00
2013-2-7,72.0,66.0,59.2,59.9,56.0,52.6,81,71,56,30.21,30.08,9,3,9,0.00
2013-2-8,77.2,66.6,59.4,61.5,56.7,45.1,85,72,34,30.13,30.02,9,2,9,0.00
2013-2-9,79.2,67.9,58.7,57.9,50.9,34.4,81,57,22,30.08,29.95,10,2,10,0.00
2013-2-10,76.3,69.6,61.7,56.9,47.6,34.1,66,47,24,30.02,29.90,7,2,7,0.00
2013-2-11,76.7,70.9,63.4,64.5,55.9,39.5,82,61,28,29.98,29.86,12,4,12,0.00
2013-2-12,75.8,71.4,68.4,66.4,63.8,59.6,85,77,60,29.92,29.82,15,6,15,0.00
2013-2-13,78.1,69.8,64.1,65.8,60.0,52.0,86,72,57,30.01,29.86,20,7,20,0.00
2013-2-14,74.0,66.2,61.6,52.3,48.3,40.5,66,54,33,30.07,29.97,22,11,22,0.00
2013-2-15,75.6,66.6,57.6,62.7,56.6,48.8,84,71,53,30.07,29.98,14,5,14,0.00
2013-2-16,74.7,67.4,60.7,64.5,59.0,51.0,92,76,45,30.03,29.88,11,3,11,0.00
2013-2-17,78.8,69.6,62.5,62.6,58.6,51.0,83,69,48,29.93,29.82,13,5,13,0.00
2013-2-18,76.7,69.0,64.8,60.0,55.5,51.1,79,63,44,29.94,29.84,18,6,18,0.00
2013-2-19,74.5,68.3,62.1,60.9,57.0,52.7,77,67,55,29.97,29.86,12,4,12,0.00
2013-2-20,76.3,70.0,65.5,63.8,58.7,51.7,79,68,57,30.05,29.88,17,6,17,0.00
2013-2-21,78.8,70.4,64.8,54.6,46.0,35.0,68,45,22,30.07,29.97,22,9,22,0.00
2013-2-22,78.3,69.4,60.7,55.5,46.9,34.6,68,47,24,30.10,29.99,17,6,17,0.00
2013-2-23,73.4,67.7,59.2,62.9,57.3,50.3,82,70,62,30.07,29.94,9,4,9,0.00
2013-2-24,76.0,71.6,68.0,67.6,63.8,52.4,87,77,49,30.04,29.87,16,5,16,0.00
2013-2-25,77.4,69.6,64.3,57.5,49.7,41.7,69,51,29,30.13,30.02,26,11,26,0.00
2013-2-26,78.5,69.2,61.6,58.1,52.9,50.3,71,57,39,30.17,30.07,21,8,21,0.00
2013-2-27,74.3,66.5,57.2,56.6,52.5,46.2,79,62,39,30.15,30.04,11,4,11,0.00
2013-2-28,75.4,69.3,61.7,64.4,59.2,53.0,77,71,60,30.08,29.99,11,4,11,0.00
2013-3-1,77.6,72.2,68.2,66.9,64.4,60.1,86,77,65,30.05,29.96,12,5,12,0.00
2013-3-2,79.6,73.9,70.6,68.1,65.9,63.5,83,76,62,30.07,29.96,15,5,15,0.00
2013-3-3,81.4,75.0,70.7,68.8,66.0,62.6,85,74,56,30.11,30.00,10,4,10,0.00
2013-3-4,81.9,75.9,68.8,66.1,62.2,57.6,76,63,45,30.08,29.94,10,3,10,0.00
2013-3-5,83.2,77.2,71.8,67.1,62.9,55.6,75,63,41,29.95,29.80,14,5,14,0.00
2013-3-6,86.6,78.4,73.4,66.6,63.0,50.9,78,61,30,29.90,29.75,11,6,11,0.00
2013-3-7,76.9,73.0,67.9,64.7,54.6,47.1,77,53,42,30.04,29.58,26,13,26,0.00
2013-3-8,76.7,67.2,61.7,48.2,46.0,41.7,60,48,33,30.11,30.05,17,8,17,0.00
2013-3-9,74.2,66.7,57.4,61.1,53.0,45.7,77,62,42,30.09,29.89,13,6,13,0.00
2013-3-10,76.0,72.2,66.8,67.7,64.0,60.6,85,76,64,29.91,29.75,14,5,14,0.00
2013-3-11,81.0,74.7,67.3,62.5,50.6,36.7,68,45,21,29.95,29.73,21,9,26,0.00
2013-3-12,80.1,72.3,62.6,51.5,42.9,35.7,65,37,21,30.02,29.93,29,12,29,0.00
2013-3-13,84.2,72.5,60.8,52.4,46.3,41.5,66,42,23,30.05,29.92,22,8,22,0.00
2013-3-14,83.7,73.4,63.0,61.7,54.1,47.8,66,52,33,30.01,29.91,13,4,13,0.00
2013-3-15,82.3,73.8,64.6,63.6,55.5,46.8,75,54,33,30.04,29.92,11,4,11,0.00
2013-3-16,84.2,74.9,65.3,66.8,60.2,44.2,82,63,26,30.01,29.90,14,4,14,0.00
2013-3-17,84.2,77.2,71.8,68.0,64.0,55.0,78,65,38,29.93,29.81,13,5,13,0.00
2013-3-18,85.5,78.9,73.8,67.8,62.2,53.8,80,58,35,29.89,29.72,15,5,15,0.00
2013-3-19,83.7,76.5,69.7,66.8,63.1,58.5,75,64,45,29.87,29.71,20,6,20,0.00
2013-3-20,83.0,73.7,67.7,65.0,60.5,54.8,76,64,39,29.89,29.78,17,7,17,0.00
2013-3-21,79.4,72.9,68.0,65.7,60.4,56.2,77,65,56,29.94,29.80,18,8,18,0.00
2013-3-22,82.6,73.0,64.4,59.5,46.2,30.1,77,44,17,29.91,29.81,22,8,22,0.00
2013-3-23,68.9,65.4,63.2,50.1,47.3,44.6,62,52,42,29.81,29.78,7,4,7,0.00
2013-3-31,92.3,87.1,80.1,55.1,46.9,37.7,37,26,16,29.91,29.83,21,7,21,0.00
2013-4-1,94.9,84.3,73.6,58.1,47.9,39.6,50,30,18,29.89,29.79,17,6,17,0.00
2013-4-2,90.4,81.9,75.1,64.6,55.0,40.3,61,41,24,29.87,29.77,10,4,10,0.00
2013-4-3,91.1,82.3,73.8,70.1,60.6,40.6,68,51,19,29.87,29.75,10,4,10,0.00
2013-4-4,87.1,82.2,78.3,71.9,68.1,61.7,76,63,49,29.84,29.67,14,6,14,0.00
2013-4-5,90.4,83.6,79.9,70.8,65.8,53.4,73,56,31,29.76,29.55,20,7,20,0.00
2013-4-6,83.9,79.0,73.8,70.8,55.8,39.1,75,49,21,29.65,29.47,28,11,28,0.00
2013-4-7,83.5,75.8,69.5,63.1,51.0,42.9,63,44,25,29.70,29.58,24,8,24,0.00
2013-4-8,83.0,76.0,67.9,67.5,62.0,54.4,71,62,48,29.75,29.64,10,4,10,0.00
2013-4-9,86.0,79.3,72.2,68.6,65.4,59.9,75,63,42,29.81,29.71,14,4,14,0.00
2013-4-10,85.7,79.7,75.8,74.2,69.9,66.2,83,72,54,29.79,29.69,17,6,17,0.00
2013-4-11,87.8,80.7,75.2,69.7,66.3,60.9,74,62,47,29.83,29.71,16,4,16,0.00
2013-4-12,88.2,81.9,76.3,69.8,65.6,60.4,71,58,46,29.85,29.73,12,5,12,0.00
2013-4-13,95.4,84.8,78.3,73.2,68.7,61.3,79,60,34,29.83,29.75,17,6,17,0.00
2013-4-14,98.5,87.7,79.9,71.1,64.7,52.0,68,49,24,29.83,29.72,15,5,15,0.00
2013-4-15,92.5,85.4,79.2,69.9,63.2,55.4,68,48,34,29.82,29.73,17,5,17,0.00
2013-4-16,90.7,84.7,79.6,66.9,60.7,53.1,58,45,30,29.80,29.64,10,4,10,0.00
2013-4-17,98.6,90.0,82.6,67.6,58.7,51.0,55,36,23,29.76,29.59,29,7,29,0.00
2013-4-18,95.2,88.0,81.2,72.3,67.9,59.1,65,52,32,29.66,29.53,13,5,13,0.00
2013-4-19,93.2,87.3,83.3,72.5,67.7,63.1,64,53,39,29.68,29.56,14,4,14,0.00
2013-4-20,99.9,88.9,80.6,70.2,60.3,49.2,70,41,19,29.64,29.54,19,5,19,0.00
2013-4-21,95.6,86.9,78.7,68.2,58.2,47.9,58,39,25,29.71,29.52,19,6,19,0.00
2013-4-22,86.6,81.0,75.8,56.4,51.2,42.5,46,36,25,29.81,29.65,21,9,21,0.00
2013-4-23,88.2,81.5,75.2,59.8,54.6,48.4,54,40,28,29.88,29.76,20,6,20,0.00
2013-4-24,89.8,83.3,77.6,61.3,49.9,34.5,57,33,16,29.91,29.80,24,7,24,0.00
2013-4-25,87.5,81.4,75.6,58.8,48.1,38.6,39,32,23,29.94,29.82,21,7,21,0.00
2013-4-26,83.3,79.2,76.7,53.2,47.8,39.9,42,34,23,29.94,29.79,13,4,13,0.00
2013-4-27,78.7,74.7,71.5,62.7,54.4,42.2,70,50,30,29.98,29.85,12,3,12,0.00
2013-4-28,84.8,76.5,68.6,60.9,57.4,53.3,63,52,40,29.92,29.81,9,4,9,0.00
2013-4-29,87.1,81.8,78.8,67.6,63.5,55.8,66,54,38,29.86,29.81,17,6,17,0.00
2013-4-30,81.7,77.6,76.0,70.5,65.9,58.9,78,68,51,29.88,29.77,20,6,20,0.00
2013-5-1,88.0,80.9,76.0,74.0,71.3,68.2,86,73,54,29.86,29.73,17,7,17,0.00
2013-5-2,93.6,83.7,77.4,72.7,69.8,65.2,82,64,42,29.80,29.70,21,6,21,0.00
2013-5-3,91.8,85.3,79.9,75.2,73.1,69.6,79,68,53,29.80,29.70,0,0,0,0.00
2013-5-4,90.0,81.9,74.0,77.3,71.2,60.7,84,71,50,29.90,29.70,0,0,0,0.00
2013-5-5,110.9,79.0,73.3,84.2,64.1,55.9,77,61,29,29.84,29.71,0,0,0,0.00
2013-5-6,85.3,79.6,77.0,68.6,63.8,61.1,63,59,49,29.82,29.74,0,0,0,0.00
2013-5-7,96.7,87.3,78.1,70.5,62.4,53.6,62,45,25,29.83,29.68,0,0,0,0.00
2013-6-27,96.8,96.7,96.7,51.5,51.4,50.4,22,22,22,29.48,29.47,6,4,6,0.00
2013-6-28,114.5,101.7,92.3,77.5,54.4,40.9,47,24,9,29.50,29.41,24,7,24,0.00
2013-6-29,107.6,98.0,91.8,79.4,65.4,43.9,63,38,16,29.46,29.39,12,5,12,0.00
2013-6-30,107.6,96.9,89.6,84.8,71.3,50.1,65,47,19,29.50,29.40,15,4,15,0.00
2013-7-1,105.3,96.7,89.6,81.9,71.6,59.7,56,45,25,29.51,29.42,13,4,13,0.00
2013-7-2,104.2,97.4,92.5,80.3,72.1,63.3,60,45,30,29.50,29.40,10,3,10,0.00
2013-7-3,109.8,99.7,90.4,78.6,62.2,39.0,56,32,12,29.52,29.42,18,6,18,0.00
2013-7-4,109.3,99.7,91.1,70.8,56.2,39.9,36,25,9,29.53,29.44,21,8,21,0.00
2013-7-5,106.7,97.0,88.0,77.8,66.7,59.1,44,38,27,29.48,29.42,16,6,16,0.00
2013-7-6,106.2,96.4,87.8,85.1,73.7,60.7,80,50,26,29.51,29.41,14,5,14,0.00
2013-7-7,107.5,97.0,89.5,84.1,76.0,65.3,80,53,30,29.55,29.46,11,4,11,0.00
2013-7-8,105.7,96.6,90.0,82.8,75.2,59.4,75,52,26,29.48,29.39,18,6,18,0.00
2013-7-9,108.2,97.7,88.6,83.5,74.6,62.1,80,50,24,29.44,29.32,13,4,13,0.00
2013-7-10,108.0,98.8,92.7,83.8,79.1,60.3,73,56,25,29.39,29.32,13,4,13,0.00
2013-7-11,110.0,99.8,92.7,85.1,78.3,61.6,77,54,23,29.45,29.34,10,4,10,0.00
2013-7-12,113.4,100.9,92.0,82.1,70.8,45.1,58,40,12,29.49,29.42,13,4,13,0.00
2013-7-13,111.2,99.5,90.9,84.3,73.2,48.3,70,47,14,29.49,29.40,17,5,17,0.00
2013-7-14,105.7,96.7,90.5,85.1,81.0,71.4,77,62,36,29.50,29.42,14,4,14,0.00
2013-7-15,101.5,95.1,90.2,85.4,83.5,81.5,79,70,56,29.52,29.43,12,4,12,0.00
2013-7-16,103.7,96.4,91.1,86.3,83.0,76.6,82,66,49,29.52,29.41,12,4,12,0.00
2013-7-17,103.0,96.8,91.6,85.6,78.1,67.6,74,56,37,29.45,29.38,13,5,13,0.00
2013-7-18,103.9,97.4,92.0,87.7,85.6,82.6,83,69,57,29.45,29.34,11,5,11,0.00
2013-7-19,104.6,98.3,92.9,87.8,84.5,76.4,77,66,47,29.40,29.29,16,5,16,0.00
2013-7-20,106.6,97.7,91.4,85.1,81.5,65.2,79,62,31,29.40,29.31,15,5,15,0.00
2013-7-21,105.8,97.5,91.1,84.8,80.1,72.5,77,59,42,29.43,29.35,19,6,19,0.00
2013-7-22,107.3,97.9,88.6,80.4,72.0,60.0,62,44,27,29.43,29.35,20,6,20,0.00
2013-7-23,109.6,99.7,88.9,78.6,66.0,53.8,58,35,24,29.48,29.39,19,6,19,0.00
2013-7-24,112.5,100.4,89.1,78.5,64.7,51.9,54,33,17,29.49,29.40,20,7,20,0.00
2013-7-25,112.3,101.9,92.7,72.5,60.2,45.2,49,28,12,29.44,29.35,21,9,21,0.00
2013-7-26,110.7,102.0,95.2,67.0,58.5,47.1,39,26,14,29.36,29.29,28,12,28,0.00
2013-7-27,106.9,98.4,91.6,78.9,66.8,52.8,56,37,19,29.46,29.30,22,8,22,0.00
2013-7-28,104.8,96.2,87.5,79.3,68.8,56.1,59,42,24,29.54,29.44,10,4,10,0.00
2013-7-29,110.2,99.4,87.7,69.5,58.6,44.8,55,29,13,29.56,29.49,27,10,27,0.00
2013-7-30,109.8,99.9,90.2,67.3,52.9,40.0,45,23,9,29.52,29.43,26,10,26,0.00
2013-7-31,108.9,98.8,88.6,62.1,50.6,38.7,39,22,11,29.49,29.42,24,8,24,0.00
2013-8-1,109.1,98.6,88.7,64.6,52.3,39.9,45,24,11,29.50,29.42,28,10,28,0.00
2013-8-2,108.0,99.0,88.9,69.8,55.2,40.5,52,27,12,29.48,29.42,29,11,29,0.00
2013-8-3,108.4,99.2,91.1,68.5,59.6,43.3,44,29,13,29.48,29.40,23,8,23,0.00
2013-8-4,101.2,93.9,88.4,85.8,77.2,56.1,79,60,30,29.50,29.43,16,4,16,0.00
2013-8-5,100.3,94.2,90.9,84.8,81.7,78.0,82,68,51,29.52,29.44,16,6,16,0.00
2013-8-6,99.0,93.9,90.5,84.9,82.2,76.6,80,70,51,29.54,29.46,14,5,14,0.00
2013-8-7,101.3,94.2,89.6,84.4,81.7,73.5,83,68,44,29.56,29.47,15,4,15,0.00
2013-8-8,101.9,94.9,90.7,85.2,82.3,74.8,81,68,43,29.57,29.48,17,6,17,0.00
2013-8-9,101.5,95.2,90.7,85.5,83.5,79.7,81,69,53,29.54,29.44,16,6,16,0.00
2013-8-10,101.7,95.3,90.9,84.5,82.4,78.9,80,67,55,29.51,29.44,15,5,15,0.00
2013-8-11,104.8,95.6,87.5,82.0,77.8,57.7,74,59,26,29.55,29.47,16,4,16,0.00
2013-8-12,104.4,95.2,88.0,83.4,79.9,67.7,79,63,36,29.59,29.51,14,5,14,0.00
2013-8-13,104.2,95.4,87.8,85.0,80.9,65.7,80,64,34,29.56,29.47,14,4,14,0.00
2013-8-14,103.0,95.8,87.5,84.5,79.4,71.2,74,61,40,29.53,29.41,12,4,12,0.00
2013-8-15,105.1,96.4,91.8,85.1,80.0,69.8,77,61,35,29.56,29.48,12,4,12,0.00
2013-8-16,102.1,96.5,91.6,86.5,85.0,79.4,82,70,51,29.56,29.46,15,5,15,0.00
2013-8-17,102.1,96.1,91.1,86.4,84.9,82.4,81,71,60,29.56,29.49,12,5,12,0.00
2013-8-18,107.1,96.8,89.6,86.6,82.9,63.7,83,66,29,29.57,29.46,13,4,13,0.00
2013-8-19,101.7,96.0,90.7,85.7,83.7,78.9,80,68,55,29.58,29.47,13,5,13,0.00
2013-8-20,103.3,95.3,87.8,86.2,82.9,77.3,87,69,51,29.59,29.48,11,4,11,0.00
2013-8-21,100.8,94.9,88.9,84.6,82.5,77.8,78,68,52,29.56,29.46,12,4,12,0.00
2013-8-22,101.9,95.5,88.9,84.9,82.0,72.6,77,66,43,29.57,29.47,12,4,12,0.00
2013-8-23,106.6,97.2,89.1,84.4,76.7,61.7,75,54,29,29.63,29.53,14,4,14,0.00
2013-8-24,108.9,97.6,88.2,82.2,73.7,53.1,71,49,18,29.62,29.54,17,6,17,0.00
2013-8-25,101.2,94.0,86.0,83.3,78.3,63.9,76,62,32,29.61,29.52,14,5,14,0.00
2013-8-26,104.2,95.2,87.8,85.2,79.5,70.2,78,62,39,29.62,29.50,11,4,11,0.00
2013-8-27,108.2,97.5,88.7,75.2,68.9,58.7,62,42,22,29.59,29.50,22,8,22,0.00
2013-8-28,105.8,97.0,87.3,76.5,67.6,53.8,62,40,19,29.62,29.52,20,6,20,0.00
2013-8-29,98.8,93.5,87.5,84.1,80.5,73.9,75,66,59,29.66,29.56,12,4,12,0.00
2013-8-30,99.7,94.3,90.4,85.2,82.4,80.0,76,69,60,29.69,29.59,14,5,14,0.00
2013-8-31,99.4,94.1,88.0,85.2,83.2,79.7,81,71,62,29.69,29.59,13,6,13,0.00
2013-9-1,100.6,95.1,90.7,85.2,83.0,78.0,79,69,56,29.70,29.60,13,5,13,0.00
2013-9-2,102.1,95.9,91.3,86.5,82.6,73.4,77,66,42,29.74,29.65,13,6,13,0.00
2013-9-3,102.2,95.9,89.3,85.1,82.1,75.0,81,66,45,29.74,29.62,11,4,11,0.00
2013-9-4,110.2,97.0,89.1,85.4,79.9,52.1,81,61,16,29.68,29.54,13,5,13,0.00
2013-9-5,102.8,96.2,90.2,83.4,80.1,71.6,76,61,40,29.60,29.50,15,5,15,0.00
2013-9-6,100.1,94.2,88.7,86.5,83.6,81.3,82,72,58,29.64,29.54,15,6,15,0.00
2013-9-7,101.7,95.1,90.0,83.9,79.7,69.7,82,63,40,29.71,29.61,13,5,13,0.00
2013-9-8,103.1,94.5,87.5,79.6,73.1,57.9,63,51,25,29.72,29.63,14,5,14,0.00
2013-9-9,100.8,94.9,89.6,81.5,77.3,70.2,72,58,40,29.73,29.63,16,6,16,0.00
2013-9-10,99.4,94.4,90.4,83.9,81.1,75.0,76,66,57,29.76,29.65,13,5,13,0.00
2013-9-11,98.6,93.3,87.1,79.1,75.6,63.8,74,58,36,29.71,29.62,12,4,12,0.00
2013-9-12,97.2,92.3,86.4,81.3,79.4,76.1,78,66,60,29.78,29.64,11,4,11,0.00
2013-9-13,98.1,92.8,87.1,82.8,80.1,77.5,77,67,59,29.86,29.76,11,4,11,0.00
2013-9-14,99.0,92.0,85.0,80.1,75.3,62.9,78,59,33,29.82,29.69,13,4,13,0.00
2013-9-15,100.1,92.2,83.3,79.0,72.1,55.9,67,53,25,29.75,29.62,11,4,11,0.00
2013-9-16,101.7,93.1,83.9,79.5,73.9,55.9,78,56,24,29.69,29.58,9,4,9,0.00
2013-9-17,110.3,96.0,85.0,81.5,68.4,38.7,68,46,11,29.66,29.58,13,4,13,0.00
2013-9-18,106.6,94.2,86.4,82.8,72.5,41.3,74,53,12,29.69,29.60,14,5,14,0.00
2013-9-19,101.2,93.0,86.4,82.1,76.9,63.3,72,61,33,29.71,29.63,13,4,13,0.00
2013-9-20,101.7,92.0,83.7,84.5,79.3,68.9,82,68,38,29.73,29.63,12,4,12,0.00
2013-9-21,105.8,95.7,86.6,80.8,69.2,53.8,80,46,20,29.69,29.61,22,8,22,0.00
2013-9-22,108.4,96.7,85.9,74.6,62.1,45.3,64,37,13,29.66,29.58,24,7,24,0.00
2013-9-23,103.9,94.6,85.3,76.3,69.2,59.8,67,46,26,29.70,29.60,18,6,18,0.00
2013-9-24,101.2,92.9,85.3,75.0,63.8,50.7,69,42,20,29.75,29.66,25,9,26,0.00
2013-9-25,100.3,91.6,84.6,69.8,64.4,53.7,58,42,24,29.75,29.67,24,11,24,0.00
2013-9-26,96.5,90.1,83.5,69.4,63.1,54.7,53,42,27,29.81,29.72,26,12,26,0.00
2013-9-27,95.8,87.7,81.0,73.6,67.6,60.8,67,52,41,29.78,29.68,21,8,21,0.00
2013-9-28,94.3,87.9,81.0,75.2,73.0,66.0,73,62,42,29.79,29.71,15,5,15,0.00
2013-9-29,93.2,87.9,82.1,76.1,74.0,71.8,74,64,53,29.79,29.69,12,4,12,0.00
2013-9-30,92.9,87.1,80.8,75.7,73.7,71.3,76,65,52,29.76,29.66,13,4,13,0.00
2013-10-1,93.4,88.2,82.6,76.1,73.5,71.7,72,62,52,29.79,29.68,10,3,10,0.00
2013-10-2,96.5,88.9,81.9,78.9,74.0,65.3,74,62,38,29.84,29.74,12,4,12,0.00
2013-10-3,95.0,88.3,81.2,80.3,76.2,70.7,82,68,52,29.86,29.76,10,4,10,0.00
2013-10-4,104.4,90.7,79.6,79.5,70.6,40.7,90,58,12,29.82,29.70,11,5,12,0.00
2013-10-5,105.5,92.2,82.6,78.6,67.5,37.7,68,49,11,29.79,29.70,12,4,12,0.00
2013-10-6,105.3,90.9,81.7,77.9,62.9,37.5,69,44,10,29.78,29.68,16,5,16,0.00
2013-10-7,104.0,90.7,81.4,77.9,66.5,47.5,79,49,17,29.84,29.73,19,6,19,0.00
2013-10-8,94.0,86.6,81.9,76.8,69.6,64.4,77,58,42,29.92,29.82,21,11,21,0.00
2013-10-9,92.5,83.8,76.5,66.5,60.9,52.7,60,47,33,29.94,29.86,22,12,22,0.00
2013-10-10,91.6,80.0,73.8,63.7,58.7,52.7,60,49,37,29.97,29.89,18,7,18,0.00
2013-10-11,92.0,85.1,77.6,62.9,60.1,56.1,54,44,30,29.91,29.86,18,10,19,0.00
2013-10-12,92.7,82.2,73.8,62.0,56.1,43.6,65,43,21,29.89,29.78,18,7,18,0.00
2013-10-13,93.6,81.5,71.8,68.1,58.8,48.4,69,48,25,29.87,29.78,14,4,14,0.00
2013-10-14,92.2,82.3,73.1,68.8,57.1,39.5,63,44,18,29.95,29.84,10,3,10,0.00
2013-10-15,90.2,83.1,74.9,74.0,68.6,61.6,74,62,42,29.97,29.86,10,4,10,0.00
2013-10-16,91.4,84.0,77.0,74.1,68.3,51.8,80,61,29,29.95,29.84,12,4,12,0.00
2013-10-17,94.9,83.8,74.5,70.9,64.0,39.3,78,55,17,29.97,29.88,13,4,13,0.00
2013-10-18,90.2,82.1,73.4,77.1,72.1,56.5,85,72,47,29.98,29.90,10,4,10,0.00
2013-10-19,90.9,83.6,75.4,78.0,75.5,72.1,92,77,59,29.99,29.91,9,3,9,0.00
2013-10-20,95.9,86.3,76.9,74.2,64.3,51.4,76,50,23,30.00,29.90,12,3,12,0.00
2013-10-21,94.5,84.6,77.4,73.2,64.7,58.1,81,54,31,29.94,29.85,24,11,24,0.00
2013-10-22,89.1,82.2,74.9,64.0,57.4,48.9,58,43,30,29.96,29.87,23,12,23,0.00
2013-10-23,90.4,80.1,71.1,65.7,56.2,52.0,61,45,30,30.01,29.90,16,6,17,0.00
2013-10-24,87.5,79.9,71.6,69.0,62.6,57.1,65,56,44,30.03,29.93,11,5,11,0.00
2013-10-25,86.8,81.4,76.3,69.7,65.6,62.6,70,59,48,30.01,29.89,10,4,10,0.00
2013-10-26,85.9,81.1,75.1,71.5,66.2,61.0,73,61,45,29.98,29.87,12,4,12,0.00
2013-10-27,87.8,83.5,78.5,77.5,75.0,71.0,82,76,68,29.99,29.89,10,4,10,0.00
2013-10-28,89.8,84.2,78.8,77.8,74.1,66.5,83,73,48,29.96,29.86,13,4,13,0.00
2013-10-29,87.5,82.9,76.9,75.8,72.4,66.4,86,71,60,29.97,29.86,10,4,10,0.00
2013-10-30,88.0,81.8,76.9,68.7,64.4,57.4,66,56,40,30.03,29.93,13,5,13,0.00
2013-10-31,87.3,81.4,74.3,72.8,68.2,62.1,76,65,55,30.04,29.94,11,4,11,0.00
2013-11-1,86.8,81.3,73.8,75.1,72.3,68.6,85,74,64,30.03,29.93,10,4,10,0.00
2013-11-2,87.3,82.4,75.2,77.1,74.8,69.4,86,78,70,30.00,29.91,10,4,10,0.00
2013-11-3,91.1,85.8,81.5,77.8,73.6,68.6,86,68,49,30.00,29.89,13,4,13,0.00
2013-11-4,91.6,84.7,79.4,76.6,72.1,59.2,80,67,36,30.05,29.93,15,5,15,0.00
2013-11-5,87.1,80.4,75.2,69.0,63.3,52.5,74,57,34,30.12,30.02,17,7,17,0.00
2013-11-6,85.7,78.2,71.1,67.1,63.2,59.1,69,61,43,30.13,30.00,12,5,12,0.00
2013-11-7,85.0,79.2,72.5,68.4,65.3,63.2,77,63,52,30.07,29.96,10,4,10,0.00
2013-11-8,85.5,79.8,72.7,66.2,63.5,61.2,68,58,47,30.05,29.95,9,4,9,0.00
2013-11-9,87.8,82.6,77.6,74.5,68.6,63.6,72,63,52,30.04,29.94,12,5,12,0.00
2013-11-10,87.5,83.2,79.6,75.4,71.0,68.0,78,67,53,30.07,29.98,15,5,15,0.00
2013-11-11,86.2,82.1,78.1,71.1,69.3,66.9,74,66,57,30.08,29.98,9,3,9,0.00
2013-11-12,87.1,80.2,74.0,67.6,65.6,61.7,78,62,49,30.03,29.91,9,3,9,0.00
2013-11-13,85.7,78.3,72.2,67.1,62.6,58.2,64,59,50,29.98,29.89,11,3,11,0.00
2013-11-14,85.5,81.6,77.6,71.3,66.5,62.5,66,60,49,29.96,29.85,13,4,13,0.00
2013-11-15,84.4,79.1,74.9,68.2,65.4,61.8,74,63,54,30.01,29.90,12,5,12,0.00
2013-11-16,83.7,78.2,73.4,63.6,60.8,54.8,66,56,45,30.07,29.98,12,4,12,0.00
2013-11-17,78.1,72.1,67.3,65.5,62.1,58.1,83,71,55,30.12,29.94,21,7,21,0.17
2013-11-18,82.8,79.2,74.0,72.5,69.3,64.4,78,72,63,30.01,29.92,17,9,17,0.00
2013-11-19,83.9,80.7,79.4,72.1,69.6,64.5,78,69,54,30.01,29.92,17,8,17,0.00
2013-11-20,82.6,77.3,71.6,72.6,69.8,65.9,89,78,61,30.00,29.81,20,7,20,0.67
2013-11-21,77.0,72.1,68.0,67.1,64.0,59.1,84,76,59,29.93,29.80,17,6,17,0.07
2013-11-22,73.4,68.4,64.8,60.1,57.8,55.8,77,69,57,29.98,29.87,21,9,21,0.00
2013-11-23,76.3,68.9,63.4,61.2,57.9,55.1,82,69,55,30.06,29.96,19,7,19,0.00
2013-11-24,77.8,69.5,62.6,59.4,55.7,52.3,74,62,42,30.12,30.02,14,6,14,0.00
2013-11-25,79.0,71.1,64.1,58.2,55.8,53.1,77,59,42,30.13,30.03,14,5,14,0.00
2013-11-26,81.4,72.0,64.3,60.2,56.5,48.4,78,60,33,30.11,30.00,14,5,14,0.00
2013-11-27,80.6,72.6,64.3,65.4,58.8,50.8,77,63,40,30.12,30.03,9,4,9,0.00
2013-11-28,80.8,72.7,66.4,67.5,64.4,61.9,88,76,57,30.16,30.05,14,5,14,0.00
2013-11-29,79.4,72.3,65.5,69.3,66.0,61.2,87,81,71,30.16,30.05,6,3,6,0.00
2013-11-30,80.1,72.8,65.7,68.6,65.6,61.4,87,78,66,30.17,30.08,8,3,8,0.00
2013-12-1,82.8,73.6,66.6,64.0,58.8,51.0,83,62,34,30.21,30.09,15,6,15,0.00
2013-12-2,81.7,72.8,66.8,66.5,63.5,60.3,87,73,50,30.17,30.05,16,8,16,0.00
2013-12-3,81.9,72.0,65.7,65.4,61.3,55.9,86,71,42,30.07,29.95,10,5,10,0.00
2013-12-4,78.8,71.4,64.8,63.2,59.3,47.8,83,67,38,30.06,29.96,11,3,11,0.00
2013-12-5,79.0,74.3,71.1,66.3,63.7,59.3,79,70,61,30.04,29.94,12,4,12,0.00
2013-12-6,86.0,75.3,69.7,68.1,62.8,45.5,83,67,25,30.02,29.93,11,4,11,0.00
2013-12-7,79.7,72.7,66.4,66.8,62.0,54.9,84,70,59,30.09,29.98,18,6,18,0.00
2013-12-8,80.3,72.3,66.1,60.6,58.1,53.3,76,62,45,30.12,30.00,14,6,14,0.00
2013-12-9,82.6,72.9,65.5,61.2,57.9,51.2,78,61,35,30.05,29.93,15,6,15,0.00
2013-12-10,76.7,70.1,64.1,61.3,56.5,51.5,74,62,54,30.07,29.93,19,9,19,0.00
2013-12-11,72.2,65.7,60.1,59.8,53.5,49.4,71,65,52,30.13,30.00,16,6,16,0.00
2013-12-12,77.2,73.2,69.5,67.6,64.6,59.2,83,75,66,30.05,29.96,14,6,14,0.00
2013-12-13,80.3,75.4,72.4,68.0,66.5,63.0,84,74,58,30.04,29.96,13,6,13,0.00
2013-12-14,80.6,75.0,69.5,69.0,64.8,56.5,85,71,52,30.08,29.97,13,4,13,0.00
2013-12-15,75.1,69.7,64.4,65.7,54.3,45.7,82,59,38,30.20,30.02,25,13,25,0.00
2013-12-16,67.0,62.7,57.8,52.4,49.3,44.5,70,62,50,30.26,30.15,24,12,24,0.00
2013-12-17,70.6,62.6,56.7,53.9,49.0,43.8,71,61,48,30.21,30.11,19,9,19,0.00
2013-12-18,73.3,64.8,58.0,56.9,53.1,50.2,76,67,52,30.19,30.07,14,6,14,0.00
2013-12-19,73.8,66.7,59.2,59.7,56.7,53.3,83,71,58,30.15,30.04,10,4,10,0.00
2013-12-20,74.0,66.9,61.4,58.2,53.8,48.9,74,64,45,30.19,30.08,23,8,23,0.00
2013-12-21,67.7,61.5,57.6,51.9,48.9,43.3,71,64,53,30.22,30.11,24,11,24,0.00
2013-12-22,69.5,61.5,55.8,50.2,45.7,40.1,64,56,45,30.19,30.09,17,8,17,0.00
2013-12-23,70.0,61.5,54.9,47.2,43.4,39.2,62,52,36,30.28,30.15,14,6,14,0.00
2013-12-24,72.7,63.5,56.2,54.5,49.2,41.0,78,60,42,30.36,30.25,14,4,14,0.00
2013-12-25,73.4,64.8,57.4,50.6,44.7,35.5,70,50,27,30.40,30.28,14,5,14,0.00
2013-12-26,71.3,62.6,56.9,52.4,45.0,34.8,68,53,40,30.35,30.21,17,7,17,0.00
2013-12-27,68.0,60.6,54.5,49.0,46.7,44.3,71,61,44,30.33,30.20,15,6,15,0.00
2013-12-28,68.4,60.4,54.5,49.9,46.4,44.1,72,61,46,30.29,30.17,12,5,12,0.00
2013-12-29,70.6,62.7,55.8,55.8,49.3,39.3,75,62,54,30.21,30.07,9,4,11,0.00
2013-12-30,71.3,64.9,58.3,58.5,54.2,50.4,77,69,53,30.17,30.05,7,2,7,0.00
2013-12-31,71.6,67.4,61.6,60.9,58.2,55.0,82,73,57,30.15,30.03,13,4,13,0.00
2014-1-1,73.3,69.0,66.8,61.5,57.6,50.3,80,68,46,30.14,30.03,17,5,17,0.00
2014-1-2,72.0,68.4,65.2,61.9,59.6,56.9,82,74,65,30.19,30.07,12,4,12,0.00